HTMU

Musoma Airport

Musoma, Tanzania
METAR HTMU 240300Z 00000KT 9999 LT FEW019 FEW020B BKN100 20/19 Q1017
Observed Flight Rules
Apr-24 @ 03:00 UTC (22 hours ago) Visual Flight Rules
Visibility Clouds
10,000+ meters
  • Few at 1,900' AGL
  • Broken at 10,000' AGL
Temperatures Readings
Current 20°C / 68°F
Dewpoint 19°C / 66°F
Humidity 94%
Altimeter 30.03" Hg
Pressure 1017 hPa
Elevation 1147
METAR HTMU 240300Z 00000KT 9999 LT FEW019 FEW020B BKN100 20/19 Q1017
Observed Flight Rules
Apr-24 @ 03:00 UTC
(22 hours ago)
VFR
Clouds
  • Few at 1,900' AGL
  • Broken at 10,000' AGL
Temperature Dewpoint
20°C / 68°F 19°C / 66°F
Humidity Altimeter Pressure
94% 30.03" Hg 1017 hPa